Accueil
METAR-TAF:

METAR-TAF

Aéroports :

Rotterdam, Pays-Bas

Aéroport de Rotterdam-La Haye

latitude: 51-57N, longitude: 004-27E, altitude: -5 m

Observation

Le bulletin a été fait il y a 9 minutes, à 03:55 UTC
Vent 12 kt de est
Température -3°C
Humidité 63%
Pression 1029 hPa
Visibilité 10 km ou plus

METAR: EHRD 250355Z AUTO 08012KT 9999 NCD M03/M09 Q1029 NOSIG

Heure: 05:04 (04:04 UTC)

Prévision

Le bulletin a été fait il y a 4 heures et 55 minutes, à 23:09 UTC
Prévision valable du 25 à 00 UTC au 26 à 06 UTC
Vent 14 kt de est
Visibilité 10 km ou plus
pas de nuages en-dessous de 1500 mètres et pas de cumulonimbus.
Evoluant progressivement
du 25 à 18 UTC au 25 à 21 UTC
Vent 8 kt de est/nord-est

TAF: EHRD 242309Z 2500/2606 08014KT CAVOK BECMG 2518/2521 06008KT

Observations et prévisions météorologiques de plus de 4000 aéroports (messages METAR et TAF).

Les stations disponibles sont représentées par des disques jaunes et rouges sur la carte.

Passer la souris dessus pour voir le nom de la station.

Cliquer dessus pour voir les observations et prévisions météorologiques.

Pour changer de carte: cliquez sur les boutons verts avec une croix noire pour zoomer, sur le bouton vert avec un tiret pour effectuer un zoom arrière, ou sur les flèches vertes pour les cartes adjacentes.


METAR-TAF: